Time;durP1;ratioP1;P1;durP2;ratioP2;P2;SDS_P1;SDS_P2;PMS_P1;PMS_P2;Temp;Humidity;BMP_temperature;BMP_pressure;BME280_temperature;BME280_humidity;BME280_pressure;Samples;Min_cycle;Max_cycle;Signal;HPM_P1;HPM_P2
2022/06/23 00:01:19;;;;;;;7.28;5.57;;;12.20;99.90;;;;;;5010960;28;20471;-50
2022/06/23 00:03:48;;;;;;;9.32;5.88;;;12.00;99.90;;;;;;5011525;28;20283;-51
2022/06/23 00:06:38;;;;;;;6.90;5.22;;;11.90;99.90;;;;;;5012304;28;20045;-48
2022/06/23 00:09:32;;;;;;;6.88;5.22;;;13.30;99.90;;;;;;5011033;28;20706;-51
2022/06/23 00:11:59;;;;;;;7.80;5.53;;;11.70;99.90;;;;;;5011911;28;20052;-49
2022/06/23 00:14:26;;;;;;;9.77;6.05;;;12.20;99.90;;;;;;4994945;28;20571;-52
2022/06/23 00:16:52;;;;;;;10.23;7.53;;;13.00;99.90;;;;;;5012556;28;20085;-51
2022/06/23 00:19:18;;;;;;;11.40;7.78;;;11.60;99.90;;;;;;5012681;28;20044;-49
2022/06/23 00:21:50;;;;;;;10.50;7.95;;;12.30;99.90;;;;;;5011654;28;20041;-48
2022/06/23 00:24:18;;;;;;;;;;;11.90;99.90;;;;;;5011539;28;20127;-50
2022/06/23 00:26:44;;;;;;;7.28;6.18;;;11.90;99.90;;;;;;5010233;28;20504;-50
2022/06/23 00:29:14;;;;;;;7.90;5.85;;;11.70;99.90;;;;;;5011208;28;20052;-49
2022/06/23 00:31:41;;;;;;;7.63;5.65;;;12.80;99.90;;;;;;5011369;28;20053;-48
2022/06/23 00:34:23;;;;;;;7.85;5.88;;;11.70;99.90;;;;;;5066353;28;20657;-48
2022/06/23 00:37:00;;;;;;;8.95;6.30;;;11.60;99.90;;;;;;5073492;28;20044;-51
2022/06/23 00:39:32;;;;;;;8.52;6.68;;;13.60;99.90;;;;;;5074320;28;20055;-49
2022/06/23 00:41:58;;;;;;;10.48;8.35;;;11.60;99.90;;;;;;5072964;28;20078;-51
2022/06/23 00:44:38;;;;;;;11.73;8.07;;;11.60;99.90;;;;;;5073207;28;20127;-48
2022/06/23 00:47:12;;;;;;;12.18;8.70;;;13.10;99.90;;;;;;5072736;28;20044;-47
2022/06/23 00:49:56;;;;;;;8.65;6.70;;;11.90;99.90;;;;;;5072649;28;20106;-49
2022/06/23 00:52:45;;;;;;;9.93;7.90;;;11.90;99.90;;;;;;5073536;28;20083;-47
2022/06/23 00:55:20;;;;;;;10.70;7.00;;;11.70;99.90;;;;;;5072864;28;20063;-48
2022/06/23 00:57:58;;;;;;;13.25;9.07;;;11.90;99.90;;;;;;5072538;28;20253;-48
2022/06/23 01:00:51;;;;;;;12.38;8.43;;;12.00;99.90;;;;;;5072902;28;20597;-50
2022/06/23 01:03:45;;;;;;;14.35;10.00;;;12.00;99.90;;;;;;5071570;28;20051;-47
2022/06/23 01:06:27;;;;;;;12.07;8.40;;;11.90;99.90;;;;;;4971143;28;20137;-47
2022/06/23 01:09:12;;;;;;;13.45;9.43;;;12.00;99.90;;;;;;4971485;28;20223;-47
2022/06/23 01:11:46;;;;;;;12.90;9.68;;;12.20;99.90;;;;;;4970136;28;20057;-48
2022/06/23 01:15:01;;;;;;;14.52;9.35;;;12.30;99.90;;;;;;4971356;28;20306;-51
2022/06/23 01:17:39;;;;;;;18.20;10.70;;;12.20;99.90;;;;;;4950626;28;20514;-50
2022/06/23 01:20:29;;;;;;;13.57;9.80;;;12.20;99.90;;;;;;4951920;28;20142;-48
2022/06/23 01:23:38;;;;;;;12.65;9.63;;;12.30;99.90;;;;;;4952402;28;20054;-47
2022/06/23 01:26:25;;;;;;;12.23;9.05;;;12.20;99.90;;;;;;4932638;28;20882;-48
2022/06/23 01:28:59;;;;;;;14.63;9.25;;;12.20;99.90;;;;;;4934614;28;20091;-47
2022/06/23 01:31:35;;;;;;;13.32;9.63;;;12.30;99.90;;;;;;4933881;28;20785;-49
2022/06/23 01:34:21;;;;;;;13.88;9.73;;;12.40;99.90;;;;;;4933547;28;20641;-51
2022/06/23 01:36:55;;;;;;;14.30;10.18;;;12.50;99.90;;;;;;4932543;28;21694;-48
2022/06/23 01:39:39;;;;;;;13.70;9.90;;;12.20;99.90;;;;;;4931583;28;20851;-48
2022/06/23 01:42:39;;;;;;;14.27;9.80;;;12.30;99.90;;;;;;4933595;28;20800;-49
2022/06/23 01:45:08;;;;;;;12.90;8.73;;;14.00;99.90;;;;;;4951146;28;20053;-46
2022/06/23 01:47:39;;;;;;;13.00;10.30;;;12.40;99.90;;;;;;4950531;28;20043;-47
2022/06/23 01:50:14;;;;;;;13.52;9.95;;;12.40;99.90;;;;;;4951326;28;20161;-48
2022/06/23 01:52:47;;;;;;;12.85;9.50;;;12.40;99.90;;;;;;4950394;28;20262;-51
2022/06/23 01:55:24;;;;;;;15.90;10.55;;;12.30;99.90;;;;;;5045841;28;21081;-50
2022/06/23 01:58:07;;;;;;;13.73;10.23;;;12.40;99.90;;;;;;5049026;28;20044;-50
2022/06/23 02:00:41;;;;;;;11.07;9.02;;;12.30;99.90;;;;;;5047420;28;20581;-50
2022/06/23 02:03:40;;;;;;;13.98;10.02;;;12.40;99.90;;;;;;5066045;28;20051;-51
2022/06/23 02:06:19;;;;;;;15.88;10.77;;;12.10;99.90;;;;;;5071905;28;20151;-51
2022/06/23 02:08:47;;;;;;;15.07;10.25;;;12.30;99.90;;;;;;5072084;28;20792;-51
2022/06/23 02:11:34;;;;;;;13.98;10.30;;;12.30;99.90;;;;;;5072034;28;20048;-48
2022/06/23 02:14:06;;;;;;;16.67;10.75;;;12.30;99.90;;;;;;5070141;28;20046;-50
2022/06/23 02:16:48;;;;;;;15.68;10.77;;;12.30;99.90;;;;;;5070820;28;20078;-51
2022/06/23 02:19:17;;;;;;;15.82;10.77;;;14.40;99.90;;;;;;5072083;28;20032;-47
2022/06/23 02:21:54;;;;;;;12.82;10.02;;;12.30;99.90;;;;;;5070930;28;20058;-52
2022/06/23 02:25:09;;;;;;;12.93;10.02;;;12.10;99.90;;;;;;5072958;28;20120;-48
2022/06/23 02:27:43;;;;;;;14.23;10.82;;;12.20;99.90;;;;;;5024423;28;20048;-49
2022/06/23 02:30:29;;;;;;;13.23;10.70;;;12.20;99.90;;;;;;5029932;28;20409;-52
2022/06/23 02:33:19;;;;;;;14.48;10.35;;;12.20;99.90;;;;;;5034164;28;20053;-49
2022/06/23 02:35:48;;;;;;;17.42;10.93;;;12.20;99.90;;;;;;5033927;28;20056;-50
2022/06/23 02:38:22;;;;;;;17.80;12.05;;;12.20;99.90;;;;;;5035203;28;20591;-49
2022/06/23 02:41:02;;;;;;;15.13;10.32;;;12.20;99.90;;;;;;5033263;28;20293;-50
2022/06/23 02:43:36;;;;;;;13.27;10.20;;;12.10;99.90;;;;;;5031409;28;20122;-49
2022/06/23 02:46:17;;;;;;;14.93;11.05;;;12.10;99.90;;;;;;5033302;28;20095;-47
2022/06/23 02:49:08;;;;;;;18.15;11.23;;;12.00;99.90;;;;;;5032888;28;20193;-47
2022/06/23 02:52:12;;;;;;;18.73;12.43;;;12.20;99.90;;;;;;5031834;28;20049;-49
2022/06/23 02:54:59;;;;;;;18.52;12.15;;;12.00;99.90;;;;;;4954797;28;20129;-48
2022/06/23 02:57:42;;;;;;;21.23;14.07;;;12.10;99.90;;;;;;4956895;28;20042;-49
2022/06/23 03:00:29;;;;;;;15.30;11.20;;;12.20;99.90;;;;;;4954152;28;20082;-51
2022/06/23 03:03:08;;;;;;;20.45;13.40;;;12.20;99.90;;;;;;4956583;28;20050;-47
2022/06/23 03:05:45;;;;;;;21.35;14.05;;;12.00;99.90;;;;;;5013778;28;20056;-48
2022/06/23 03:08:50;;;;;;;19.27;13.77;;;12.10;99.90;;;;;;5014113;28;20045;-50
2022/06/23 03:11:54;;;;;;;18.63;13.25;;;12.20;99.90;;;;;;4964172;28;20046;-48
2022/06/23 03:14:53;;;;;;;19.58;13.52;;;12.10;99.90;;;;;;4966652;28;20046;-49
2022/06/23 03:17:34;;;;;;;19.73;13.68;;;12.00;99.90;;;;;;4965448;28;20069;-48
2022/06/23 03:20:28;;;;;;;17.35;13.27;;;12.30;99.90;;;;;;4960180;28;20039;-50
2022/06/23 03:23:14;;;;;;;19.02;14.07;;;12.10;99.90;;;;;;4960578;28;20069;-48
2022/06/23 03:25:52;;;;;;;20.33;13.98;;;12.20;99.90;;;;;;4960452;28;20058;-51
2022/06/23 03:28:42;;;;;;;18.88;13.43;;;13.00;99.90;;;;;;4966806;28;20050;-52
2022/06/23 03:31:17;;;;;;;20.13;14.73;;;13.30;99.90;;;;;;4974998;28;20054;-47
2022/06/23 03:34:12;;;;;;;18.58;12.48;;;13.60;99.90;;;;;;4993897;28;20057;-48
2022/06/23 03:36:43;;;;;;;17.23;12.10;;;12.20;99.90;;;;;;4993475;28;20049;-50
2022/06/23 03:42:31;;;;;;;17.33;12.35;;;12.10;99.90;;;;;;4993773;28;20053;-50
2022/06/23 03:45:04;;;;;;;16.70;12.77;;;12.20;99.90;;;;;;4993412;28;20109;-47
2022/06/23 03:47:35;;;;;;;19.00;13.07;;;12.10;99.90;;;;;;5013004;28;20052;-47
2022/06/23 03:50:14;;;;;;;19.92;13.32;;;12.20;99.90;;;;;;5075140;28;20825;-50
2022/06/23 03:52:47;;;;;;;25.48;14.18;;;12.30;99.90;;;;;;5074826;28;20051;-48
2022/06/23 03:55:31;;;;;;;19.58;14.13;;;12.30;99.90;;;;;;5075880;28;20040;-52
2022/06/23 03:58:33;;;;;;;19.88;13.93;;;12.60;99.90;;;;;;5074425;28;20686;-50
2022/06/23 04:01:07;;;;;;;21.98;14.65;;;12.40;99.90;;;;;;5074129;28;20571;-47
2022/06/23 04:03:43;;;;;;;21.10;13.55;;;14.40;99.90;;;;;;5074345;28;20446;-51
2022/06/23 04:06:14;;;;;;;20.45;14.20;;;12.40;99.90;;;;;;5074528;28;20077;-46
2022/06/23 04:08:54;;;;;;;20.00;14.27;;;12.50;99.90;;;;;;5073020;28;20067;-48
2022/06/23 04:14:15;;;;;;;17.77;13.63;;;13.40;99.90;;;;;;5073389;28;20051;-48
2022/06/23 04:16:41;;;;;;;19.70;13.23;;;13.10;99.90;;;;;;5073812;28;20135;-51
2022/06/23 04:19:23;;;;;;;22.65;13.48;;;13.40;99.90;;;;;;5074517;28;20040;-48
2022/06/23 04:21:57;;;;;;;18.17;12.52;;;13.00;99.90;;;;;;5073496;28;20671;-50
2022/06/23 04:24:25;;;;;;;16.02;12.13;;;13.00;99.90;;;;;;5073294;28;20124;-48
2022/06/23 04:26:54;;;;;;;15.90;11.75;;;14.00;99.90;;;;;;5073049;28;20044;-47
2022/06/23 04:29:36;;;;;;;14.85;11.77;;;13.30;99.90;;;;;;5072448;28;20046;-50
2022/06/23 04:32:04;;;;;;;;;;;14.60;99.90;;;;;;5073731;28;20127;-47
2022/06/23 04:34:33;;;;;;;14.73;11.68;;;13.20;99.90;;;;;;5073980;28;20046;-46
2022/06/23 04:36:59;;;;;;;17.33;12.02;;;13.20;99.90;;;;;;5073475;28;20757;-47
2022/06/23 04:39:45;;;;;;;13.55;11.05;;;14.40;99.90;;;;;;5071231;28;20054;-46
2022/06/23 04:42:24;;;;;;;14.43;11.57;;;13.70;99.90;;;;;;5072989;28;20810;-50
2022/06/23 04:44:55;;;;;;;15.23;11.20;;;13.60;99.90;;;;;;5072186;28;20108;-51
2022/06/23 04:47:29;;;;;;;15.27;11.98;;;13.80;99.90;;;;;;5072662;28;20936;-51
2022/06/23 04:50:01;;;;;;;13.60;11.05;;;13.70;99.90;;;;;;5074132;28;20139;-47
2022/06/23 04:52:52;;;;;;;12.75;10.77;;;13.70;99.90;;;;;;5074504;28;21311;-50
2022/06/23 04:55:23;;;;;;;13.73;10.48;;;15.90;99.90;;;;;;5073902;28;20145;-49
2022/06/23 04:58:06;;;;;;;13.18;9.77;;;14.10;99.90;;;;;;5074319;28;20044;-49
2022/06/23 05:00:46;;;;;;;16.77;10.15;;;14.20;99.90;;;;;;5071493;28;20044;-47
2022/06/23 05:03:40;;;;;;;12.90;9.68;;;14.80;99.90;;;;;;5073968;28;20560;-50
2022/06/23 05:06:19;;;;;;;15.68;10.55;;;14.70;99.90;;;;;;5010292;28;20045;-50
2022/06/23 05:08:46;;;;;;;12.75;10.48;;;15.40;99.90;;;;;;5008837;28;21107;-47
2022/06/23 05:11:20;;;;;;;14.48;9.68;;;15.30;99.90;;;;;;5007966;28;20087;-51
2022/06/23 05:13:58;;;;;;;12.35;9.70;;;14.30;99.90;;;;;;5008123;28;20037;-52
2022/06/23 05:16:28;;;;;;;13.35;10.07;;;16.20;99.90;;;;;;5008428;28;20045;-46
2022/06/23 05:18:56;;;;;;;15.13;9.55;;;14.50;99.90;;;;;;5008360;28;20045;-49
2022/06/23 05:21:27;;;;;;;13.95;9.13;;;16.00;99.90;;;;;;5009237;28;21437;-51
2022/06/23 05:23:54;;;;;;;12.20;9.60;;;14.70;99.90;;;;;;5007829;28;20845;-48
2022/06/23 05:26:24;;;;;;;12.98;9.27;;;14.80;99.90;;;;;;5009198;28;20033;-51
2022/06/23 05:28:57;;;;;;;13.15;8.63;;;15.00;99.90;;;;;;5009587;28;20053;-46
2022/06/23 05:31:28;;;;;;;12.95;8.77;;;14.80;99.90;;;;;;5008220;28;20046;-50
2022/06/23 05:33:59;;;;;;;12.53;8.93;;;16.70;99.90;;;;;;5007299;28;20095;-47
2022/06/23 05:36:31;;;;;;;19.30;9.38;;;17.00;99.90;;;;;;5007762;28;20060;-46
2022/06/23 05:39:04;;;;;;;12.20;9.75;;;16.30;99.90;;;;;;5008540;28;20593;-50
2022/06/23 05:41:41;;;;;;;12.95;9.43;;;15.70;99.90;;;;;;5007435;28;20295;-47
2022/06/23 05:44:42;;;;;;;11.00;9.25;;;15.60;99.90;;;;;;5066186;28;20052;-46
2022/06/23 05:47:12;;;;;;;12.40;8.32;;;17.70;99.90;;;;;;5071555;28;20145;-48
2022/06/23 05:49:44;;;;;;;12.32;8.35;;;17.20;99.90;;;;;;5072172;28;20063;-51
2022/06/23 05:52:18;;;;;;;;;;;15.90;99.90;;;;;;5073267;28;20102;-46
2022/06/23 05:54:56;;;;;;;12.30;9.15;;;16.00;99.90;;;;;;5071607;28;20001;-49
2022/06/23 05:57:27;;;;;;;12.48;8.15;;;16.20;99.90;;;;;;5072130;28;20044;-51
2022/06/23 05:59:59;;;;;;;10.77;7.97;;;17.10;99.90;;;;;;5070472;28;20416;-49
2022/06/23 06:02:31;;;;;;;;;;;18.50;99.90;;;;;;5072189;28;20036;-47
2022/06/23 06:05:00;;;;;;;13.60;9.57;;;16.50;99.90;;;;;;5072569;28;19931;-46
2022/06/23 06:07:32;;;;;;;10.82;8.60;;;18.20;99.90;;;;;;5072600;28;20043;-49
2022/06/23 06:09:58;;;;;;;12.48;8.60;;;16.70;99.90;;;;;;5071131;28;20035;-49
2022/06/23 06:12:31;;;;;;;11.15;8.13;;;17.00;99.90;;;;;;5071527;28;20036;-50
2022/06/23 06:15:01;;;;;;;10.30;8.25;;;17.20;99.90;;;;;;5071758;28;20084;-47
2022/06/23 06:17:30;;;;;;;11.50;8.05;;;19.20;99.90;;;;;;5072794;28;20044;-49
2022/06/23 06:20:00;;;;;;;11.75;7.53;;;18.00;99.90;;;;;;5071770;28;20039;-48
2022/06/23 06:22:52;;;;;;;10.73;7.95;;;19.10;99.90;;;;;;5071403;28;20101;-48
2022/06/23 06:25:34;;;;;;;8.60;7.25;;;19.50;99.90;;;;;;5071207;28;20028;-48
2022/06/23 06:28:09;;;;;;;9.68;6.93;;;19.20;99.90;;;;;;5072002;28;20040;-49
2022/06/23 06:30:39;;;;;;;11.90;7.20;;;19.10;99.90;;;;;;5071497;28;20063;-46
2022/06/23 06:33:14;;;;;;;10.30;7.03;;;19.20;99.90;;;;;;5070551;28;20044;-47
2022/06/23 06:35:42;;;;;;;11.73;7.05;;;19.30;99.90;;;;;;5071437;28;21573;-50
2022/06/23 06:38:12;;;;;;;9.23;7.03;;;19.40;99.90;;;;;;5070939;28;20044;-47
2022/06/23 06:40:38;;;;;;;9.95;6.53;;;19.60;99.90;;;;;;5071212;28;20134;-51
2022/06/23 06:43:12;;;;;;;9.90;6.55;;;19.50;99.90;;;;;;5072125;28;20060;-49
2022/06/23 06:45:39;;;;;;;8.88;6.43;;;19.70;99.90;;;;;;5069757;28;20416;-48
2022/06/23 06:48:30;;;;;;;11.30;6.47;;;19.90;99.90;;;;;;5070132;28;20142;-48
2022/06/23 06:51:02;;;;;;;12.38;6.45;;;20.00;99.90;;;;;;5069346;28;20054;-48
2022/06/23 06:53:43;;;;;;;8.77;6.18;;;20.00;99.90;;;;;;5071688;28;20603;-50
2022/06/23 06:56:33;;;;;;;8.82;6.15;;;20.70;99.90;;;;;;5068999;28;20040;-52
2022/06/23 06:59:28;;;;;;;10.00;6.40;;;20.30;99.90;;;;;;5070290;28;20101;-51
2022/06/23 07:02:01;;;;;;;8.35;5.47;;;20.90;99.90;;;;;;5071070;28;20599;-50
2022/06/23 07:04:34;;;;;;;9.75;5.80;;;22.80;99.90;;;;;;5069670;28;20040;-49
2022/06/23 07:07:06;;;;;;;11.15;5.47;;;21.30;99.90;;;;;;5073282;28;20490;-49
2022/06/23 07:09:57;;;;;;;9.48;5.75;;;21.60;99.90;;;;;;5072005;28;20032;-50
2022/06/23 07:12:48;;;;;;;8.02;4.93;;;22.20;99.90;;;;;;5072289;28;20104;-51
2022/06/23 07:15:38;;;;;;;8.85;5.40;;;22.60;99.90;;;;;;5071736;28;20745;-50
2022/06/23 07:18:29;;;;;;;8.95;5.13;;;23.70;99.90;;;;;;5073981;28;20044;-52
2022/06/23 07:21:19;;;;;;;8.77;4.85;;;24.00;99.90;;;;;;5076152;28;20070;-52
2022/06/23 07:23:49;;;;;;;7.15;4.45;;;24.70;99.90;;;;;;5074571;28;20047;-51
2022/06/23 07:26:39;;;;;;;12.20;4.60;;;26.10;99.90;;;;;;5075550;28;20043;-50
2022/06/23 07:29:21;;;;;;;8.90;5.28;;;27.20;99.90;;;;;;5073529;28;20125;-50
2022/06/23 07:32:05;;;;;;;;;;;27.90;99.90;;;;;;5075189;28;20051;-51
2022/06/23 07:34:37;;;;;;;8.20;4.65;;;28.10;99.90;;;;;;5075315;28;19955;-48
2022/06/23 07:37:12;;;;;;;6.65;3.92;;;28.70;99.90;;;;;;5075073;28;20044;-53
2022/06/23 07:39:39;;;;;;;9.45;4.50;;;29.30;99.90;;;;;;5073902;28;20036;-52
2022/06/23 07:42:35;;;;;;;6.35;3.90;;;29.90;99.90;;;;;;5075219;28;20063;-51
2022/06/23 07:45:10;;;;;;;9.25;4.07;;;29.70;99.10;;;;;;5073896;28;21201;-53
2022/06/23 07:47:37;;;;;;;7.35;4.18;;;29.90;96.70;;;;;;5071922;28;20753;-54
2022/06/23 07:50:04;;;;;;;7.30;4.65;;;30.00;97.10;;;;;;5073494;28;20620;-54
2022/06/23 07:52:29;;;;;;;9.73;4.13;;;29.30;96.30;;;;;;5074430;28;20032;-54
2022/06/23 07:54:55;;;;;;;7.28;4.03;;;29.10;97.10;;;;;;5073265;28;20680;-55
2022/06/23 07:57:22;;;;;;;5.68;3.30;;;29.50;96.40;;;;;;5073879;28;20032;-56
2022/06/23 07:59:58;;;;;;;8.13;3.60;;;29.70;96.60;;;;;;5073349;28;20143;-55
2022/06/23 08:02:51;;;;;;;7.65;3.42;;;29.80;94.90;;;;;;5072422;28;20386;-56
2022/06/23 08:05:25;;;;;;;8.50;3.42;;;30.30;95.80;;;;;;5072677;28;20036;-55
2022/06/23 08:07:54;;;;;;;7.88;3.60;;;30.60;95.20;;;;;;5073839;28;20059;-55
2022/06/23 08:10:24;;;;;;;5.50;3.60;;;30.80;93.90;;;;;;5072228;28;20516;-55
2022/06/23 08:13:19;;;;;;;7.28;3.65;;;30.70;93.70;;;;;;5073417;28;20480;-54
2022/06/23 08:18:52;;;;;;;6.10;3.55;;;30.60;94.00;;;;;;4991645;28;20141;-55
2022/06/23 08:21:17;;;;;;;;;;;30.40;92.90;;;;;;4990579;28;20054;-53
2022/06/23 08:23:54;;;;;;;7.55;3.70;;;30.50;92.90;;;;;;4991239;28;19933;-53
2022/06/23 08:26:22;;;;;;;6.82;3.60;;;30.50;93.20;;;;;;4991420;28;20038;-52
2022/06/23 08:28:51;;;;;;;8.20;3.88;;;30.50;92.80;;;;;;4990159;28;20125;-53
2022/06/23 08:31:18;;;;;;;7.18;3.20;;;30.10;92.20;;;;;;4991311;28;20133;-54
2022/06/23 08:33:44;;;;;;;8.05;3.70;;;29.80;93.40;;;;;;4992492;28;20064;-53
2022/06/23 08:36:17;;;;;;;4.95;3.17;;;30.10;93.60;;;;;;4991738;28;20041;-52
2022/06/23 08:39:06;;;;;;;7.70;3.08;;;29.80;92.30;;;;;;4992980;28;20131;-51
2022/06/23 08:41:54;;;;;;;5.60;3.20;;;30.00;93.40;;;;;;4992300;28;20549;-54
2022/06/23 08:44:52;;;;;;;7.50;2.90;;;30.20;93.20;;;;;;4991851;28;20053;-53
2022/06/23 08:47:28;;;;;;;7.13;3.42;;;30.30;93.20;;;;;;4991595;28;20112;-50
2022/06/23 08:50:35;;;;;;;5.47;2.95;;;30.40;92.90;;;;;;4989917;28;20041;-53
2022/06/23 08:53:21;;;;;;;6.28;3.25;;;30.40;91.70;;;;;;4970147;28;20053;-54
2022/06/23 08:55:57;;;;;;;7.53;3.03;;;30.20;91.70;;;;;;4990881;28;20045;-54
2022/06/23 08:58:38;;;;;;;5.75;3.28;;;30.20;93.10;;;;;;4989661;28;20426;-52
2022/06/23 09:01:04;;;;;;;;;;;31.70;93.60;;;;;;4991714;28;20499;-54
2022/06/23 09:03:52;;;;;;;6.25;3.53;;;29.40;92.60;;;;;;4990902;28;19975;-53
2022/06/23 09:06:49;;;;;;;7.70;3.72;;;29.50;92.50;;;;;;4990199;28;20048;-52
2022/06/23 09:09:24;;;;;;;7.18;3.55;;;29.40;92.70;;;;;;4990079;28;21284;-51
2022/06/23 09:12:20;;;;;;;8.25;3.55;;;29.70;93.80;;;;;;4989312;28;21578;-54
2022/06/23 09:15:17;;;;;;;7.68;3.42;;;29.70;92.10;;;;;;4973416;28;20185;-51
2022/06/23 09:18:01;;;;;;;8.93;3.83;;;29.10;92.50;;;;;;4990582;28;21060;-51
2022/06/23 09:20:52;;;;;;;6.88;3.30;;;28.70;92.50;;;;;;4989508;28;20190;-50
2022/06/23 09:23:36;;;;;;;7.40;3.33;;;28.60;93.20;;;;;;4989246;28;20057;-50
2022/06/23 09:26:29;;;;;;;6.68;2.90;;;27.60;93.40;;;;;;4989053;28;20204;-47
2022/06/23 09:28:57;;;;;;;7.30;3.28;;;27.20;95.50;;;;;;5009345;28;20146;-53
2022/06/23 09:31:41;;;;;;;6.75;3.78;;;27.50;96.40;;;;;;5072138;28;20047;-47
2022/06/23 09:34:44;;;;;;;6.68;2.92;;;27.30;95.70;;;;;;5070975;28;21079;-48
2022/06/23 09:37:23;;;;;;;8.07;2.75;;;27.10;94.70;;;;;;5072472;28;20051;-49
2022/06/23 09:40:01;;;;;;;6.35;2.67;;;27.20;97.20;;;;;;5071029;28;20088;-51
2022/06/23 09:42:40;;;;;;;5.93;3.00;;;27.10;98.00;;;;;;5071569;28;21184;-52
2022/06/23 09:45:24;;;;;;;9.20;3.30;;;27.40;96.90;;;;;;5072740;28;20706;-51
2022/06/23 09:48:14;;;;;;;8.60;3.10;;;27.40;93.90;;;;;;5072334;28;20038;-47
2022/06/23 09:50:53;;;;;;;6.35;3.13;;;27.30;95.10;;;;;;5072053;28;20044;-50
2022/06/23 09:53:42;;;;;;;9.32;2.60;;;27.10;94.10;;;;;;5073091;28;20039;-48
2022/06/23 09:56:21;;;;;;;6.03;2.20;;;26.90;94.40;;;;;;5072397;28;20043;-51
2022/06/23 09:58:56;;;;;;;5.82;2.38;;;26.80;94.80;;;;;;5072155;28;20088;-48
2022/06/23 10:01:28;;;;;;;5.68;2.47;;;26.70;94.60;;;;;;5072785;28;20500;-52
2022/06/23 10:04:34;;;;;;;9.07;2.30;;;27.00;95.30;;;;;;5071773;28;20040;-50
2022/06/23 10:07:12;;;;;;;5.57;2.22;;;27.00;94.10;;;;;;5069541;28;20668;-52
2022/06/23 10:09:55;;;;;;;6.20;2.20;;;27.00;94.30;;;;;;5070471;28;20078;-51
2022/06/23 10:12:53;;;;;;;5.15;1.90;;;27.10;93.60;;;;;;5071894;28;20036;-50
2022/06/23 10:15:31;;;;;;;5.45;1.70;;;27.40;92.50;;;;;;5070867;28;20040;-48
2022/06/23 10:18:10;;;;;;;6.80;2.38;;;27.50;93.00;;;;;;5071186;28;20121;-52
2022/06/23 10:20:59;;;;;;;4.57;1.95;;;27.70;93.50;;;;;;5071102;28;20036;-50
2022/06/23 10:24:08;;;;;;;6.10;1.90;;;27.80;91.80;;;;;;4990819;28;20136;-51
2022/06/23 10:27:18;;;;;;;4.72;1.65;;;28.00;92.40;;;;;;4948884;28;20448;-49
2022/06/23 10:30:10;;;;;;;7.47;2.20;;;28.00;91.40;;;;;;4874409;29;20064;-51
2022/06/23 10:32:52;;;;;;;4.32;1.85;;;27.80;91.80;;;;;;4873953;29;20073;-50
2022/06/23 10:35:17;;;;;;;;;;;28.00;92.30;;;;;;4876002;29;20099;-52
2022/06/23 10:37:59;;;;;;;6.70;1.83;;;28.00;93.70;;;;;;4874602;29;20395;-50
2022/06/23 10:41:02;;;;;;;5.93;1.90;;;27.90;91.90;;;;;;4874354;29;20310;-48
2022/06/23 10:43:47;;;;;;;5.93;1.85;;;27.80;92.00;;;;;;4874392;29;20131;-50
2022/06/23 10:46:14;;;;;;;5.82;1.77;;;28.20;93.40;;;;;;4873821;29;20169;-52
2022/06/23 10:49:05;;;;;;;5.72;2.13;;;28.30;93.30;;;;;;4874144;29;20457;-52
2022/06/23 10:51:59;;;;;;;6.07;2.05;;;28.30;92.50;;;;;;4875111;29;20621;-47
2022/06/23 10:55:01;;;;;;;7.22;2.17;;;28.60;93.50;;;;;;4879541;29;20052;-50
2022/06/23 10:57:37;;;;;;;5.68;1.90;;;28.60;92.30;;;;;;4878467;29;20067;-52
2022/06/23 11:00:17;;;;;;;6.28;2.13;;;28.70;93.80;;;;;;4900565;28;20090;-51
2022/06/23 11:02:54;;;;;;;4.03;2.28;;;28.70;92.50;;;;;;4999342;28;20057;-52
2022/06/23 11:05:39;;;;;;;5.30;1.90;;;28.70;92.90;;;;;;5077408;28;20075;-47
2022/06/23 11:08:11;;;;;;;7.40;1.80;;;28.80;93.00;;;;;;5079050;28;20047;-51
2022/06/23 11:11:06;;;;;;;6.65;1.95;;;29.00;92.80;;;;;;5076836;28;20075;-53
2022/06/23 11:13:47;;;;;;;4.63;1.70;;;29.00;92.50;;;;;;5074778;28;20804;-48
2022/06/23 11:16:19;;;;;;;8.07;1.90;;;29.20;92.70;;;;;;5077431;28;20374;-52
2022/06/23 11:19:04;;;;;;;7.47;1.90;;;29.50;93.00;;;;;;5076331;28;20048;-53
2022/06/23 11:21:54;;;;;;;4.55;2.00;;;29.40;94.50;;;;;;5075302;28;20043;-53
2022/06/23 11:24:53;;;;;;;8.00;2.28;;;29.60;91.50;;;;;;5075840;28;20036;-49
2022/06/23 11:27:46;;;;;;;7.22;2.15;;;29.40;92.70;;;;;;5074439;28;20051;-52
2022/06/23 11:30:41;;;;;;;5.50;2.55;;;29.70;92.00;;;;;;5074409;28;20040;-50
2022/06/23 11:33:37;;;;;;;10.18;2.13;;;29.50;91.80;;;;;;5032446;28;20429;-53
2022/06/23 11:36:34;;;;;;;6.30;2.28;;;29.50;91.30;;;;;;5030763;28;20040;-50
2022/06/23 11:39:42;;;;;;;5.90;1.92;;;31.20;93.20;;;;;;5010058;28;20068;-50
2022/06/23 11:42:26;;;;;;;4.28;2.00;;;29.50;91.80;;;;;;5010122;28;20057;-50
2022/06/23 11:44:57;;;;;;;4.95;1.77;;;29.40;91.70;;;;;;5009038;28;20057;-52
2022/06/23 11:47:28;;;;;;;5.68;2.42;;;29.40;92.60;;;;;;5008156;28;20052;-50
2022/06/23 11:49:54;;;;;;;;;;;29.70;92.30;;;;;;5009230;28;20095;-53
2022/06/23 11:52:36;;;;;;;5.93;1.98;;;29.50;93.10;;;;;;5009430;28;19932;-51
2022/06/23 11:55:12;;;;;;;6.47;2.13;;;29.60;91.00;;;;;;5010682;28;20046;-51
2022/06/23 11:57:50;;;;;;;4.53;2.10;;;29.50;92.40;;;;;;5008871;28;20049;-53
2022/06/23 12:00:19;;;;;;;6.18;2.08;;;29.50;91.90;;;;;;5009079;28;20096;-53
2022/06/23 12:03:12;;;;;;;5.40;1.90;;;29.80;92.70;;;;;;5007546;28;20902;-53
2022/06/23 12:06:16;;;;;;;6.20;1.95;;;29.90;93.80;;;;;;4989832;28;20041;-52
2022/06/23 12:09:01;;;;;;;9.35;2.28;;;29.80;92.10;;;;;;4989750;28;20049;-51
2022/06/23 12:11:30;;;;;;;7.03;2.10;;;29.70;91.90;;;;;;4975848;28;20519;-52
2022/06/23 12:13:59;;;;;;;4.68;2.15;;;29.70;92.00;;;;;;4980023;28;20236;-52
2022/06/23 12:16:25;;;;;;;6.85;2.00;;;29.60;92.30;;;;;;5011510;28;20124;-53
2022/06/23 12:19:01;;;;;;;6.25;2.20;;;29.90;92.70;;;;;;5012391;28;20068;-52
2022/06/23 12:21:47;;;;;;;9.35;2.17;;;30.00;93.20;;;;;;5012246;28;20037;-53
2022/06/23 12:24:21;;;;;;;4.70;1.98;;;29.80;91.40;;;;;;5010600;28;20057;-52
2022/06/23 12:26:56;;;;;;;4.13;1.80;;;29.90;90.90;;;;;;5010755;28;20215;-53
2022/06/23 12:29:39;;;;;;;3.00;1.45;;;30.20;91.90;;;;;;5011473;28;20789;-52
2022/06/23 12:32:47;;;;;;;6.78;1.70;;;30.20;92.00;;;;;;5012000;28;20042;-54
2022/06/23 12:35:44;;;;;;;4.97;1.95;;;30.20;90.70;;;;;;4915670;29;20106;-52
2022/06/23 12:38:43;;;;;;;5.53;1.77;;;30.00;88.80;;;;;;4859774;29;20588;-53
2022/06/23 12:41:17;;;;;;;6.63;1.80;;;30.00;90.00;;;;;;4840486;29;20049;-50
2022/06/23 12:43:57;;;;;;;6.32;1.98;;;29.90;91.10;;;;;;4844365;29;20950;-53
2022/06/23 12:46:46;;;;;;;2.45;1.33;;;30.20;90.50;;;;;;4858305;29;20144;-51
2022/06/23 12:49:40;;;;;;;3.22;1.70;;;30.10;90.20;;;;;;4858648;29;20156;-52
2022/06/23 12:52:36;;;;;;;3.58;1.48;;;30.50;90.00;;;;;;4840974;29;20052;-53
2022/06/23 12:55:32;;;;;;;6.32;1.63;;;30.20;89.40;;;;;;4857806;29;20548;-49
2022/06/23 12:57:58;;;;;;;7.35;1.90;;;30.10;87.90;;;;;;4838926;29;20064;-51
2022/06/23 13:00:51;;;;;;;4.88;1.50;;;30.10;90.90;;;;;;4840471;29;20053;-51
2022/06/23 13:03:25;;;;;;;6.75;1.75;;;30.20;86.80;;;;;;4838666;29;20061;-52
2022/06/23 13:06:02;;;;;;;4.55;1.60;;;30.40;89.20;;;;;;4865031;29;20048;-51
2022/06/23 13:09:09;;;;;;;4.97;1.50;;;30.40;87.30;;;;;;4898042;29;20051;-53
2022/06/23 13:11:51;;;;;;;4.45;1.52;;;30.60;89.10;;;;;;4875439;29;20096;-51
2022/06/23 13:14:24;;;;;;;4.43;1.42;;;30.50;86.10;;;;;;4881706;29;20417;-49
2022/06/23 13:17:22;;;;;;;3.42;1.42;;;30.70;88.00;;;;;;4893709;29;20056;-51
2022/06/23 13:20:20;;;;;;;6.10;1.60;;;30.30;85.30;;;;;;4970789;28;20038;-49
2022/06/23 13:22:50;;;;;;;3.90;1.40;;;30.60;86.60;;;;;;4963304;28;20543;-48
2022/06/23 13:25:21;;;;;;;3.63;1.40;;;30.60;88.00;;;;;;4969771;28;20041;-50
2022/06/23 13:27:50;;;;;;;3.92;1.55;;;30.50;87.30;;;;;;4968094;28;20050;-51
2022/06/23 13:30:19;;;;;;;4.05;1.40;;;30.60;87.80;;;;;;4969873;28;20105;-50
2022/06/23 13:33:06;;;;;;;5.68;1.73;;;31.10;88.20;;;;;;4970019;28;20073;-49
2022/06/23 13:35:43;;;;;;;4.18;1.55;;;30.80;87.90;;;;;;5001060;28;20549;-52
2022/06/23 13:38:09;;;;;;;5.30;1.42;;;31.00;83.50;;;;;;5011903;28;20045;-53
2022/06/23 13:40:38;;;;;;;4.05;1.55;;;31.00;86.00;;;;;;5010392;28;20048;-50
2022/06/23 13:43:12;;;;;;;6.22;1.40;;;30.80;86.40;;;;;;5010799;28;20057;-54
2022/06/23 13:46:14;;;;;;;3.92;1.40;;;30.80;83.30;;;;;;5010471;28;20045;-50
2022/06/23 13:48:46;;;;;;;5.03;1.50;;;30.80;84.30;;;;;;5050473;28;20040;-51
2022/06/23 13:51:34;;;;;;;7.05;1.65;;;31.00;84.90;;;;;;5073853;28;20710;-53
2022/06/23 13:54:13;;;;;;;4.97;1.20;;;31.00;84.10;;;;;;5073185;28;20047;-53
2022/06/23 13:56:46;;;;;;;4.70;1.65;;;31.30;85.70;;;;;;5072721;28;20512;-53
2022/06/23 13:59:39;;;;;;;4.20;1.50;;;31.10;83.30;;;;;;5072569;28;20277;-52